createdAt,value
2022-08-26T00:01:46.676Z,5.90
2022-08-26T00:04:13.691Z,6.10
2022-08-26T00:06:42.505Z,6.72
2022-08-26T00:09:13.676Z,6.68
2022-08-26T00:14:10.458Z,5.97
2022-08-26T00:16:37.533Z,5.97
2022-08-26T00:19:08.270Z,6.57
2022-08-26T00:21:35.809Z,6.10
2022-08-26T00:24:04.890Z,6.35
2022-08-26T00:26:33.962Z,6.45
2022-08-26T00:29:01.111Z,6.13
2022-08-26T00:31:28.137Z,6.25
2022-08-26T00:33:58.562Z,5.93
2022-08-26T00:36:29.697Z,6.50
2022-08-26T00:38:57.616Z,6.20
2022-08-26T00:41:24.564Z,6.13
2022-08-26T00:43:51.620Z,6.47
2022-08-26T00:46:26.969Z,6.30
2022-08-26T00:49:12.022Z,6.53
2022-08-26T00:51:53.651Z,6.00
2022-08-26T00:54:24.151Z,5.47
2022-08-26T00:57:16.052Z,6.20
2022-08-26T00:59:49.034Z,6.25
2022-08-26T01:02:20.123Z,6.20
2022-08-26T01:04:55.974Z,6.05
2022-08-26T01:07:30.015Z,5.32
2022-08-26T01:09:59.608Z,6.38
2022-08-26T01:12:31.852Z,5.18
2022-08-26T01:14:59.190Z,5.68
2022-08-26T01:17:26.355Z,6.43
2022-08-26T01:20:03.847Z,6.20
2022-08-26T01:22:42.128Z,5.60
2022-08-26T01:25:11.189Z,6.07
2022-08-26T01:27:38.732Z,6.13
2022-08-26T01:30:06.680Z,6.47
2022-08-26T01:32:34.790Z,6.43
2022-08-26T01:35:02.410Z,5.88
2022-08-26T01:37:35.220Z,6.20
2022-08-26T01:40:02.725Z,7.03
2022-08-26T01:42:29.883Z,6.38
2022-08-26T01:45:11.859Z,6.47
2022-08-26T01:47:39.315Z,5.97
2022-08-26T01:50:15.687Z,6.53
2022-08-26T01:52:55.817Z,6.32
2022-08-26T01:55:33.402Z,6.50
2022-08-26T01:58:08.219Z,6.10
2022-08-26T02:00:36.557Z,6.00
2022-08-26T02:03:18.656Z,6.40
2022-08-26T02:05:58.984Z,5.68
2022-08-26T02:08:31.459Z,5.68
2022-08-26T02:11:00.176Z,5.78
2022-08-26T02:13:30.150Z,6.47
2022-08-26T02:15:58.660Z,5.90
2022-08-26T02:18:27.472Z,4.72
2022-08-26T02:20:56.394Z,5.28
2022-08-26T02:23:24.355Z,5.65
2022-08-26T02:26:02.097Z,4.30
2022-08-26T02:28:33.209Z,5.75
2022-08-26T02:31:00.299Z,5.07
2022-08-26T02:33:30.789Z,5.72
2022-08-26T02:35:57.810Z,5.55
2022-08-26T02:38:24.728Z,5.43
2022-08-26T02:40:51.587Z,5.47
2022-08-26T02:43:18.674Z,5.28
2022-08-26T02:45:50.845Z,5.40
2022-08-26T02:48:19.627Z,5.35
2022-08-26T02:50:47.138Z,4.53
2022-08-26T02:53:15.422Z,5.05
2022-08-26T02:55:42.979Z,5.38
2022-08-26T02:58:11.397Z,5.35
2022-08-26T03:00:52.900Z,5.28
2022-08-26T03:03:20.806Z,6.22
2022-08-26T03:05:50.888Z,5.10
2022-08-26T03:08:18.079Z,4.78
2022-08-26T03:10:46.531Z,5.25
2022-08-26T03:13:15.356Z,5.72
2022-08-26T03:15:42.415Z,5.88
2022-08-26T03:18:11.061Z,5.57
2022-08-26T03:20:38.805Z,5.15
2022-08-26T03:23:05.679Z,5.70
2022-08-26T03:25:34.046Z,5.03
2022-08-26T03:28:02.073Z,4.75
2022-08-26T03:30:44.811Z,5.53
2022-08-26T03:33:13.730Z,5.70
2022-08-26T03:35:43.530Z,5.05
2022-08-26T03:38:10.949Z,5.10
2022-08-26T03:40:38.783Z,4.53
2022-08-26T03:43:09.661Z,5.07
2022-08-26T03:48:05.655Z,4.90
2022-08-26T03:50:34.406Z,5.30
2022-08-26T03:53:03.494Z,5.35
2022-08-26T03:55:32.653Z,4.70
2022-08-26T03:58:00.858Z,4.82
2022-08-26T04:00:28.157Z,4.95
2022-08-26T04:02:55.513Z,5.20
2022-08-26T04:05:23.753Z,5.05
2022-08-26T04:07:51.350Z,5.18
2022-08-26T04:10:22.131Z,5.15
2022-08-26T04:12:55.813Z,4.93
2022-08-26T04:15:27.235Z,5.50
2022-08-26T04:17:55.790Z,4.28
2022-08-26T04:20:23.051Z,4.95
2022-08-26T04:22:50.990Z,4.63
2022-08-26T04:25:18.651Z,4.70
2022-08-26T04:27:48.250Z,4.93
2022-08-26T04:30:16.684Z,3.92
2022-08-26T04:32:43.793Z,5.07
2022-08-26T04:35:10.734Z,4.75
2022-08-26T04:37:37.714Z,4.60
2022-08-26T04:40:06.554Z,4.10
2022-08-26T04:42:33.780Z,4.70
2022-08-26T04:45:01.341Z,4.65
2022-08-26T04:47:32.623Z,4.53
2022-08-26T04:50:00.352Z,3.60
2022-08-26T04:52:29.100Z,4.53
2022-08-26T04:54:57.958Z,4.43
2022-08-26T04:57:24.801Z,5.30
2022-08-26T04:59:51.658Z,4.45
2022-08-26T05:02:18.761Z,4.72
2022-08-26T05:04:45.937Z,5.13
2022-08-26T05:07:12.943Z,5.13
2022-08-26T05:09:40.635Z,5.55
2022-08-26T05:12:08.052Z,4.32
2022-08-26T05:14:36.221Z,5.57
2022-08-26T05:17:04.030Z,5.63
2022-08-26T05:19:31.924Z,5.07
2022-08-26T05:21:59.764Z,5.32
2022-08-26T05:24:26.657Z,4.97
